createdAt,value
2022-08-17T00:01:52.086Z,51.09
2022-08-17T00:04:20.545Z,51.26
2022-08-17T00:06:49.108Z,51.90
2022-08-17T00:09:18.373Z,51.37
2022-08-17T00:12:41.014Z,51.73
2022-08-17T00:14:36.261Z,51.72
2022-08-17T00:17:04.792Z,51.79
2022-08-17T00:19:32.989Z,52.13
2022-08-17T00:22:34.062Z,51.46
2022-08-17T00:24:50.667Z,51.63
2022-08-17T00:27:19.185Z,51.99
2022-08-17T00:29:46.242Z,52.42
2022-08-17T00:33:22.801Z,52.54
2022-08-17T00:35:05.206Z,51.85
2022-08-17T00:37:32.343Z,51.91
2022-08-17T00:39:59.593Z,51.93
2022-08-17T00:42:30.925Z,51.98
2022-08-17T00:44:58.646Z,52.35
2022-08-17T00:47:26.049Z,51.97
2022-08-17T00:49:53.152Z,52.58
2022-08-17T00:52:25.164Z,51.68
2022-08-17T00:54:55.505Z,52.32
2022-08-17T00:57:30.622Z,51.88
2022-08-17T01:00:06.426Z,52.19
2022-08-17T01:02:42.334Z,52.32
2022-08-17T01:05:29.725Z,51.65
2022-08-17T01:07:58.933Z,52.46
2022-08-17T01:10:58.444Z,52.42
2022-08-17T01:13:39.767Z,52.76
2022-08-17T01:16:33.931Z,52.58
2022-08-17T01:19:25.381Z,52.52
2022-08-17T01:22:01.169Z,52.61
2022-08-17T01:24:28.763Z,53.33
2022-08-17T01:26:56.648Z,53.53
2022-08-17T01:29:26.015Z,53.71
2022-08-17T01:31:56.894Z,53.85
2022-08-17T01:34:25.117Z,54.06
2022-08-17T01:37:07.454Z,53.80
2022-08-17T01:39:38.068Z,53.88
2022-08-17T01:42:09.452Z,53.99
2022-08-17T01:44:37.425Z,53.96
2022-08-17T01:47:06.235Z,54.07
2022-08-17T01:49:33.544Z,54.25
2022-08-17T01:52:09.771Z,54.21
2022-08-17T01:54:39.297Z,54.17
2022-08-17T01:57:07.088Z,54.42
2022-08-17T01:59:34.264Z,54.97
2022-08-17T02:02:01.848Z,54.93
2022-08-17T02:04:28.788Z,55.08
2022-08-17T02:06:55.818Z,55.01
2022-08-17T02:09:25.812Z,54.65
2022-08-17T02:11:56.343Z,54.81
2022-08-17T02:14:24.847Z,55.04
2022-08-17T02:16:53.019Z,55.29
2022-08-17T02:19:20.681Z,54.92
2022-08-17T02:21:50.169Z,55.60
2022-08-17T02:25:00.385Z,55.21
2022-08-17T02:27:08.079Z,55.18
2022-08-17T02:29:35.351Z,55.08
2022-08-17T02:32:02.714Z,55.46
2022-08-17T02:34:30.186Z,55.79
2022-08-17T02:36:57.194Z,55.94
2022-08-17T02:39:24.282Z,55.89
2022-08-17T02:42:01.046Z,55.54
2022-08-17T02:44:39.597Z,54.97
2022-08-17T02:47:09.924Z,55.54
2022-08-17T02:49:38.019Z,55.52
2022-08-17T02:52:06.787Z,55.71
2022-08-17T02:54:41.316Z,55.31
2022-08-17T02:57:10.549Z,55.67
2022-08-17T02:59:39.418Z,55.31
2022-08-17T03:02:08.802Z,55.73
2022-08-17T03:04:35.970Z,55.16
2022-08-17T03:07:04.522Z,55.49
2022-08-17T03:09:31.904Z,55.37
2022-08-17T03:12:07.471Z,55.12
2022-08-17T03:14:41.238Z,55.19
2022-08-17T03:17:10.231Z,55.39
2022-08-17T03:19:37.760Z,55.22
2022-08-17T03:22:36.035Z,54.94
2022-08-17T03:24:57.314Z,54.75
2022-08-17T03:27:24.281Z,54.69
2022-08-17T03:29:51.258Z,54.66
2022-08-17T03:32:20.783Z,55.22
2022-08-17T03:34:48.166Z,54.90
2022-08-17T03:37:15.281Z,54.44
2022-08-17T03:39:43.083Z,54.65
2022-08-17T03:42:32.015Z,54.52
2022-08-17T03:45:01.485Z,54.21
2022-08-17T03:47:49.803Z,54.36
2022-08-17T03:50:35.881Z,55.13
2022-08-17T03:53:35.048Z,55.08
2022-08-17T03:56:23.110Z,54.68
2022-08-17T03:58:50.661Z,53.99
2022-08-17T04:01:18.085Z,54.33
2022-08-17T04:03:45.125Z,54.79
2022-08-17T04:06:12.237Z,54.90
2022-08-17T04:08:39.203Z,54.73
2022-08-17T04:11:06.325Z,53.93
2022-08-17T04:13:33.328Z,53.62
2022-08-17T04:16:00.313Z,53.54
2022-08-17T04:18:27.343Z,53.87
2022-08-17T04:20:54.513Z,53.25
2022-08-17T04:23:28.366Z,53.98
2022-08-17T04:25:55.374Z,53.72
2022-08-17T04:28:22.487Z,53.38
2022-08-17T04:30:49.563Z,52.85
2022-08-17T04:33:22.021Z,53.29
2022-08-17T04:35:52.440Z,52.93
2022-08-17T04:38:26.308Z,53.24
2022-08-17T04:41:23.983Z,52.55
2022-08-17T04:43:55.978Z,52.91
2022-08-17T04:46:25.642Z,52.72
2022-08-17T04:48:55.294Z,51.98
2022-08-17T04:51:28.168Z,51.89
2022-08-17T04:54:05.324Z,51.47
2022-08-17T04:56:33.065Z,51.01
2022-08-17T04:59:02.872Z,51.05
2022-08-17T05:01:33.891Z,50.40
2022-08-17T05:04:34.246Z,50.78
2022-08-17T05:06:51.699Z,50.38
2022-08-17T05:09:19.086Z,50.51
2022-08-17T05:11:47.546Z,50.56
2022-08-17T05:14:15.099Z,50.22
2022-08-17T05:16:42.281Z,49.86
2022-08-17T05:19:09.437Z,49.73
2022-08-17T05:21:36.562Z,49.47
2022-08-17T05:24:08.031Z,49.95
2022-08-17T05:26:51.227Z,49.39
2022-08-17T05:29:19.029Z,49.53
2022-08-17T05:31:46.248Z,49.16
2022-08-17T05:34:13.435Z,48.56
2022-08-17T05:36:44.160Z,48.37
2022-08-17T05:39:16.977Z,48.52
2022-08-17T05:41:48.221Z,48.32
2022-08-17T05:44:16.331Z,47.58
2022-08-17T05:46:49.100Z,48.27
2022-08-17T05:49:23.565Z,48.24
2022-08-17T05:52:19.904Z,48.43
2022-08-17T05:54:47.372Z,47.84
2022-08-17T05:57:36.800Z,47.53
2022-08-17T06:00:30.348Z,46.53
2022-08-17T06:03:43.343Z,46.13
2022-08-17T06:06:13.401Z,45.95
2022-08-17T06:08:53.534Z,46.15
2022-08-17T06:11:45.981Z,45.76
2022-08-17T06:14:39.566Z,45.72
2022-08-17T06:17:12.914Z,45.59
2022-08-17T06:19:47.057Z,44.94
2022-08-17T06:22:16.770Z,45.32
2022-08-17T06:24:54.308Z,43.94
2022-08-17T06:27:30.678Z,43.70
2022-08-17T06:30:01.213Z,44.34
2022-08-17T06:32:31.580Z,43.68
2022-08-17T06:35:01.036Z,43.47
2022-08-17T06:38:01.701Z,43.33
2022-08-17T06:40:40.082Z,42.61
2022-08-17T06:43:19.554Z,41.00
2022-08-17T06:46:16.814Z,41.14
2022-08-17T06:48:52.536Z,41.58
2022-08-17T06:51:28.363Z,40.61
2022-08-17T06:54:14.303Z,41.83
2022-08-17T06:56:55.201Z,40.47
2022-08-17T06:59:36.304Z,39.86
2022-08-17T07:02:56.658Z,39.60
2022-08-17T07:05:40.601Z,38.83
2022-08-17T07:08:18.703Z,39.22
2022-08-17T07:10:45.737Z,37.14
2022-08-17T07:13:38.486Z,37.62
2022-08-17T07:16:34.475Z,37.78
2022-08-17T07:19:01.635Z,36.36
2022-08-17T07:21:52.574Z,35.69
2022-08-17T07:25:04.326Z,35.12
2022-08-17T07:27:56.081Z,36.05
2022-08-17T07:31:03.217Z,36.16
2022-08-17T07:33:45.548Z,35.71
2022-08-17T07:36:30.238Z,35.80
2022-08-17T07:39:07.875Z,34.65
2022-08-17T07:41:58.895Z,34.45
2022-08-17T07:45:01.862Z,34.40
2022-08-17T07:47:56.400Z,33.40
2022-08-17T07:50:36.278Z,33.87
2022-08-17T07:53:53.288Z,33.95
2022-08-17T07:56:41.833Z,33.62
2022-08-17T07:59:47.891Z,33.70
2022-08-17T08:02:37.002Z,33.41
2022-08-17T08:05:44.303Z,32.75
2022-08-17T08:08:26.830Z,32.69
2022-08-17T08:11:28.634Z,32.27
2022-08-17T08:13:55.767Z,33.25
2022-08-17T08:16:29.822Z,32.22
2022-08-17T08:19:00.307Z,32.57
2022-08-17T08:21:43.528Z,33.04
2022-08-17T08:24:51.818Z,32.77
2022-08-17T08:27:37.798Z,32.21
2022-08-17T08:30:05.479Z,31.15
2022-08-17T08:32:48.152Z,31.83
2022-08-17T08:35:33.915Z,30.59
2022-08-17T08:38:24.147Z,30.43
2022-08-17T08:41:03.549Z,30.86
2022-08-17T08:43:52.809Z,30.37
2022-08-17T08:47:01.943Z,31.76
2022-08-17T08:50:04.528Z,32.13
2022-08-17T08:52:56.087Z,30.38
2022-08-17T08:55:53.993Z,31.28
2022-08-17T08:58:48.532Z,31.06
2022-08-17T09:01:32.688Z,30.86
2022-08-17T09:04:25.234Z,30.49
2022-08-17T09:07:11.187Z,30.92
2022-08-17T09:10:05.198Z,30.54
2022-08-17T09:12:44.274Z,29.29
2022-08-17T09:15:27.747Z,30.15
2022-08-17T09:18:59.844Z,30.35
2022-08-17T09:21:10.400Z,29.52
2022-08-17T09:24:06.482Z,29.46
2022-08-17T09:26:59.581Z,30.19
2022-08-17T09:29:32.538Z,29.69
2022-08-17T09:32:03.963Z,29.58
2022-08-17T09:34:43.622Z,29.95
2022-08-17T09:37:18.512Z,29.18
2022-08-17T09:39:55.708Z,29.28
2022-08-17T09:42:47.758Z,29.01
2022-08-17T09:45:23.814Z,28.89
2022-08-17T09:47:59.960Z,29.01
2022-08-17T09:51:04.623Z,27.71
2022-08-17T09:53:38.185Z,27.89
2022-08-17T09:56:14.078Z,27.46
2022-08-17T09:59:14.016Z,27.08
2022-08-17T10:01:59.859Z,27.52
2022-08-17T10:04:30.744Z,27.50
2022-08-17T10:07:02.372Z,27.30
2022-08-17T10:09:40.269Z,27.44
2022-08-17T10:12:29.765Z,27.74
2022-08-17T10:15:07.946Z,27.69
2022-08-17T10:17:55.702Z,27.50
2022-08-17T10:20:34.059Z,27.63
2022-08-17T10:23:31.026Z,28.21
2022-08-17T10:26:18.963Z,28.50
2022-08-17T10:28:49.633Z,27.87
2022-08-17T10:31:42.711Z,28.56
2022-08-17T10:34:18.976Z,27.72
2022-08-17T10:37:00.250Z,28.22
2022-08-17T10:39:36.044Z,28.38
2022-08-17T10:42:32.745Z,28.26
2022-08-17T10:45:15.504Z,28.36
2022-08-17T10:48:07.340Z,28.13
2022-08-17T10:50:57.673Z,28.32
2022-08-17T10:53:48.778Z,28.21
2022-08-17T10:56:17.554Z,28.44
2022-08-17T10:58:56.469Z,28.91
2022-08-17T11:01:32.810Z,28.66
2022-08-17T11:04:21.609Z,29.69
2022-08-17T11:07:02.147Z,29.05
2022-08-17T11:09:47.561Z,29.03
2022-08-17T11:12:51.925Z,29.04
2022-08-17T11:15:41.467Z,29.07
2022-08-17T11:18:22.734Z,29.12
2022-08-17T11:21:01.443Z,28.69
2022-08-17T11:23:46.540Z,29.39
2022-08-17T11:26:28.275Z,28.67
2022-08-17T11:29:00.134Z,28.97
2022-08-17T11:31:39.707Z,29.08
2022-08-17T11:34:23.234Z,28.56
2022-08-17T11:37:00.578Z,27.81
2022-08-17T11:39:49.174Z,28.48
2022-08-17T11:42:34.561Z,28.01
2022-08-17T11:45:33.265Z,28.31
2022-08-17T11:48:34.397Z,28.49
2022-08-17T11:51:33.875Z,27.88
2022-08-17T11:54:31.179Z,26.91
2022-08-17T11:56:51.886Z,26.86
2022-08-17T11:59:33.935Z,26.89
2022-08-17T12:02:26.421Z,27.53
2022-08-17T12:05:17.053Z,26.63
2022-08-17T12:07:49.449Z,26.77
2022-08-17T12:10:21.620Z,26.10
2022-08-17T12:12:53.381Z,26.27
2022-08-17T12:15:30.194Z,26.36
2022-08-17T12:17:57.930Z,26.05
2022-08-17T12:20:31.191Z,26.86
2022-08-17T12:23:17.769Z,26.16
2022-08-17T12:25:49.449Z,25.88
2022-08-17T12:28:33.801Z,25.35
2022-08-17T12:31:06.399Z,25.89
2022-08-17T12:33:36.874Z,26.01
2022-08-17T12:36:07.575Z,25.96
2022-08-17T12:38:36.982Z,25.57
2022-08-17T12:41:24.991Z,25.62
2022-08-17T12:44:28.266Z,25.80
2022-08-17T12:47:07.839Z,25.63
2022-08-17T12:49:42.296Z,25.37
2022-08-17T12:52:12.443Z,26.17
2022-08-17T12:54:48.683Z,25.97
2022-08-17T12:57:20.834Z,25.62
2022-08-17T12:59:53.507Z,25.32
2022-08-17T13:02:40.098Z,25.05
2022-08-17T13:05:14.681Z,25.83
2022-08-17T13:07:42.761Z,25.83
2022-08-17T13:10:36.555Z,26.33
2022-08-17T13:13:17.766Z,26.14
2022-08-17T13:15:55.419Z,26.74
2022-08-17T13:18:36.497Z,26.11
2022-08-17T13:21:03.852Z,25.81
2022-08-17T13:23:32.258Z,25.78
2022-08-17T13:26:09.487Z,26.18
2022-08-17T13:28:37.493Z,26.61
2022-08-17T13:31:28.075Z,26.00
2022-08-17T13:34:15.222Z,26.46
2022-08-17T13:36:43.744Z,26.27
2022-08-17T13:39:21.709Z,26.60
2022-08-17T13:41:49.589Z,26.33
2022-08-17T13:44:37.827Z,26.86
2022-08-17T13:47:16.201Z,26.60
2022-08-17T13:49:49.048Z,27.16
2022-08-17T13:52:37.915Z,26.72
2022-08-17T13:55:15.982Z,26.80
2022-08-17T13:57:47.479Z,26.74
2022-08-17T14:00:35.581Z,27.10
2022-08-17T14:03:04.754Z,27.34
2022-08-17T14:05:38.138Z,27.25
2022-08-17T14:08:07.289Z,27.42
2022-08-17T14:10:36.618Z,26.97
2022-08-17T14:13:05.301Z,27.20
2022-08-17T14:15:56.364Z,27.26
2022-08-17T14:18:42.035Z,27.04
2022-08-17T14:21:09.630Z,27.01
2022-08-17T14:23:37.710Z,27.48
2022-08-17T14:26:05.444Z,27.32
2022-08-17T14:28:32.605Z,27.15
2022-08-17T14:31:01.372Z,27.94
2022-08-17T14:33:29.242Z,27.37
2022-08-17T14:35:57.700Z,27.26
2022-08-17T14:38:24.982Z,27.15
2022-08-17T14:40:52.693Z,26.87
2022-08-17T14:43:20.589Z,27.37
2022-08-17T14:45:47.938Z,27.10
2022-08-17T14:48:14.961Z,27.68
2022-08-17T14:50:43.166Z,26.98
2022-08-17T14:53:13.774Z,27.22
2022-08-17T14:55:40.849Z,26.26
2022-08-17T14:58:09.229Z,26.87
2022-08-17T15:00:36.975Z,27.53
2022-08-17T15:03:04.424Z,26.68
2022-08-17T15:05:35.507Z,26.86
2022-08-17T15:08:03.779Z,26.67
2022-08-17T15:10:31.253Z,28.09
2022-08-17T15:12:58.846Z,27.34
2022-08-17T15:15:26.152Z,27.36
2022-08-17T15:17:53.333Z,27.02
2022-08-17T15:20:26.426Z,27.19
2022-08-17T15:22:57.474Z,27.14
2022-08-17T15:25:29.899Z,28.44
2022-08-17T15:27:56.912Z,28.70
2022-08-17T15:30:26.023Z,27.27
2022-08-17T15:32:55.358Z,27.36
2022-08-17T15:35:27.536Z,28.36
2022-08-17T15:38:11.203Z,27.98
2022-08-17T15:40:42.635Z,28.13
2022-08-17T15:43:15.601Z,27.53
2022-08-17T15:45:43.323Z,27.99
2022-08-17T15:48:10.793Z,27.24
2022-08-17T15:50:38.067Z,29.17
2022-08-17T15:53:05.216Z,28.45
2022-08-17T15:55:33.238Z,28.47
2022-08-17T15:58:00.598Z,29.95
2022-08-17T16:00:29.482Z,28.91
2022-08-17T16:03:45.010Z,28.31
2022-08-17T16:05:47.103Z,29.45
2022-08-17T16:08:20.070Z,30.02
2022-08-17T16:10:50.006Z,30.15
2022-08-17T16:13:18.353Z,30.88
2022-08-17T16:15:53.036Z,30.99
2022-08-17T16:18:27.466Z,29.26
2022-08-17T16:20:55.163Z,29.99
2022-08-17T16:23:23.220Z,30.59
2022-08-17T16:25:53.743Z,30.57
2022-08-17T16:28:23.356Z,30.50
2022-08-17T16:31:03.472Z,30.14
2022-08-17T16:33:30.486Z,30.68
2022-08-17T16:35:57.641Z,29.53
2022-08-17T16:38:24.714Z,30.94
2022-08-17T16:40:51.708Z,31.85
2022-08-17T16:43:18.749Z,30.22
2022-08-17T16:45:51.828Z,31.01
2022-08-17T16:48:19.973Z,31.60
2022-08-17T16:51:03.169Z,30.95
2022-08-17T16:53:31.898Z,31.91
2022-08-17T16:55:58.975Z,32.07
2022-08-17T16:58:26.544Z,32.60
2022-08-17T17:00:54.495Z,31.88
2022-08-17T17:03:26.177Z,32.18
2022-08-17T17:06:06.402Z,32.00
2022-08-17T17:08:48.978Z,32.58
2022-08-17T17:11:25.335Z,33.20
2022-08-17T17:14:09.371Z,32.90
2022-08-17T17:16:57.782Z,32.56
2022-08-17T17:19:45.774Z,33.02
2022-08-17T17:22:25.765Z,33.40
2022-08-17T17:25:08.967Z,34.03
2022-08-17T17:27:58.936Z,34.17
2022-08-17T17:30:38.350Z,34.62
2022-08-17T17:33:11.532Z,34.70
2022-08-17T17:35:50.842Z,35.16
2022-08-17T17:38:29.264Z,35.22
2022-08-17T17:41:09.411Z,35.31
2022-08-17T17:43:40.386Z,36.55
2022-08-17T17:46:29.278Z,35.64
2022-08-17T17:48:57.908Z,36.86
2022-08-17T17:52:06.778Z,37.17
2022-08-17T17:55:00.182Z,36.05
2022-08-17T17:57:27.138Z,37.27
2022-08-17T18:00:02.993Z,36.82
2022-08-17T18:03:17.300Z,36.42
2022-08-17T18:06:03.034Z,37.24
2022-08-17T18:08:44.907Z,36.51
2022-08-17T18:11:25.117Z,36.32
2022-08-17T18:14:17.610Z,36.90
2022-08-17T18:16:45.462Z,36.92
2022-08-17T18:19:14.459Z,37.13
2022-08-17T18:21:45.965Z,37.18
2022-08-17T18:24:13.702Z,37.95
2022-08-17T18:26:44.760Z,37.65
2022-08-17T18:29:42.852Z,37.79
2022-08-17T18:32:22.791Z,38.13
2022-08-17T18:34:57.690Z,37.79
2022-08-17T18:37:43.143Z,37.76
2022-08-17T18:40:23.737Z,38.28
2022-08-17T18:43:05.860Z,38.64
2022-08-17T18:45:39.088Z,38.97
2022-08-17T18:48:27.911Z,38.97
2022-08-17T18:51:01.725Z,38.86
2022-08-17T18:53:42.725Z,38.77
2022-08-17T18:56:30.769Z,38.62
2022-08-17T18:59:44.875Z,38.46
2022-08-17T19:02:20.669Z,39.58
2022-08-17T19:05:26.622Z,39.60
2022-08-17T19:07:54.625Z,39.41
2022-08-17T19:10:28.881Z,39.42
2022-08-17T19:13:11.337Z,40.02
2022-08-17T19:16:12.070Z,39.69
2022-08-17T19:19:07.934Z,39.60
2022-08-17T19:21:43.127Z,39.89
2022-08-17T19:24:19.855Z,40.32
2022-08-17T19:26:55.457Z,40.10
2022-08-17T19:29:35.420Z,39.94
2022-08-17T19:32:03.633Z,40.21
2022-08-17T19:34:34.492Z,40.56
2022-08-17T19:37:09.699Z,40.33
2022-08-17T19:39:58.023Z,40.87
2022-08-17T19:42:34.097Z,40.89
2022-08-17T19:45:17.914Z,39.73
2022-08-17T19:48:01.665Z,40.73
2022-08-17T19:51:15.495Z,40.08
2022-08-17T19:54:11.132Z,39.70
2022-08-17T19:57:01.710Z,39.82
2022-08-17T19:59:52.278Z,39.17
2022-08-17T20:02:29.305Z,40.18
2022-08-17T20:05:15.514Z,39.89
2022-08-17T20:08:14.470Z,39.96
2022-08-17T20:11:18.376Z,39.87
2022-08-17T20:14:11.974Z,39.92
2022-08-17T20:16:39.352Z,40.34
2022-08-17T20:19:23.029Z,40.36
2022-08-17T20:22:09.814Z,40.46
2022-08-17T20:24:44.125Z,40.58
2022-08-17T20:27:40.131Z,39.97
2022-08-17T20:30:29.887Z,39.59
2022-08-17T20:32:58.485Z,41.33
2022-08-17T20:35:34.757Z,40.58
2022-08-17T20:38:11.142Z,40.42
2022-08-17T20:41:01.310Z,40.72
2022-08-17T20:43:34.450Z,40.43
2022-08-17T20:46:04.487Z,41.09
2022-08-17T20:48:39.854Z,40.98
2022-08-17T20:51:16.567Z,40.44
2022-08-17T20:53:49.857Z,40.85
2022-08-17T20:56:44.662Z,40.70
2022-08-17T20:59:27.692Z,41.22
2022-08-17T21:02:17.448Z,41.57
2022-08-17T21:04:56.945Z,41.44
2022-08-17T21:07:43.224Z,41.77
2022-08-17T21:10:34.057Z,41.56
2022-08-17T21:13:16.109Z,41.89
2022-08-17T21:15:57.597Z,41.91
2022-08-17T21:18:42.625Z,42.33
2022-08-17T21:21:17.252Z,42.20
2022-08-17T21:24:01.373Z,42.12
2022-08-17T21:26:50.357Z,42.50
2022-08-17T21:29:30.994Z,42.19
2022-08-17T21:31:59.723Z,42.65
2022-08-17T21:34:37.991Z,42.85
2022-08-17T21:37:20.293Z,42.71
2022-08-17T21:39:53.142Z,42.99
2022-08-17T21:42:29.180Z,43.11
2022-08-17T21:45:08.068Z,43.62
2022-08-17T21:47:35.190Z,44.16
2022-08-17T21:50:21.200Z,43.67
2022-08-17T21:52:50.196Z,43.80
2022-08-17T21:55:28.326Z,43.88
2022-08-17T21:58:14.054Z,43.38
2022-08-17T22:00:44.768Z,44.24
2022-08-17T22:03:23.837Z,44.25
2022-08-17T22:05:51.621Z,44.57
2022-08-17T22:08:25.008Z,44.61
2022-08-17T22:11:01.478Z,44.52
2022-08-17T22:13:29.845Z,44.38
2022-08-17T22:16:15.585Z,44.68
2022-08-17T22:18:53.672Z,44.83
2022-08-17T22:21:22.565Z,44.85
2022-08-17T22:24:15.422Z,44.83
2022-08-17T22:27:00.298Z,45.20
2022-08-17T22:29:53.276Z,45.05
2022-08-17T22:32:45.655Z,45.53
2022-08-17T22:35:25.058Z,45.48
2022-08-17T22:37:52.732Z,45.97
2022-08-17T22:40:32.019Z,45.88
2022-08-17T22:43:03.532Z,46.02
2022-08-17T22:45:31.329Z,46.54
2022-08-17T22:48:02.210Z,46.20
2022-08-17T22:50:33.119Z,46.39
2022-08-17T22:53:22.724Z,47.02
2022-08-17T22:56:11.487Z,47.03
2022-08-17T22:59:10.886Z,47.40
2022-08-17T23:01:39.261Z,47.34
2022-08-17T23:04:29.586Z,46.99
2022-08-17T23:06:56.736Z,47.21
2022-08-17T23:09:23.818Z,47.17
2022-08-17T23:11:57.558Z,47.55
2022-08-17T23:14:31.474Z,47.56
2022-08-17T23:16:59.476Z,47.53
2022-08-17T23:19:28.443Z,47.36
2022-08-17T23:21:56.561Z,47.51
2022-08-17T23:24:27.162Z,47.35
2022-08-17T23:26:57.260Z,47.49
2022-08-17T23:29:25.832Z,46.96
2022-08-17T23:31:53.106Z,47.20
2022-08-17T23:34:20.192Z,46.83
2022-08-17T23:36:52.946Z,47.12
2022-08-17T23:39:24.370Z,46.63
2022-08-17T23:41:57.261Z,47.23
2022-08-17T23:44:24.339Z,47.22
2022-08-17T23:46:52.108Z,47.49
2022-08-17T23:49:19.534Z,48.29
2022-08-17T23:51:48.879Z,47.63
2022-08-17T23:54:24.281Z,47.23
2022-08-17T23:56:51.434Z,47.53
2022-08-17T23:59:22.631Z,47.76
